sensor_id;sensor_type;location;lat;lon;timestamp;temperature;humidity
65824;SHT31;52585;47.566;19.056;2022-08-30T00:01:01;24.53;66.11
65824;SHT31;52585;47.566;19.056;2022-08-30T00:03:30;24.50;66.17
65824;SHT31;52585;47.566;19.056;2022-08-30T00:06:01;24.47;66.20
65824;SHT31;52585;47.566;19.056;2022-08-30T00:08:27;24.41;66.23
65824;SHT31;52585;47.566;19.056;2022-08-30T00:10:53;24.38;66.31
65824;SHT31;52585;47.566;19.056;2022-08-30T00:13:19;24.35;66.39
65824;SHT31;52585;47.566;19.056;2022-08-30T00:15:46;24.34;66.44
65824;SHT31;52585;47.566;19.056;2022-08-30T00:18:12;24.33;66.49
65824;SHT31;52585;47.566;19.056;2022-08-30T00:20:40;24.34;66.50
65824;SHT31;52585;47.566;19.056;2022-08-30T00:23:06;24.33;66.50
65824;SHT31;52585;47.566;19.056;2022-08-30T00:25:32;24.32;66.49
65824;SHT31;52585;47.566;19.056;2022-08-30T00:27:57;24.30;66.54
65824;SHT31;52585;47.566;19.056;2022-08-30T00:30:23;24.28;66.61
65824;SHT31;52585;47.566;19.056;2022-08-30T00:32:49;24.25;66.67
65824;SHT31;52585;47.566;19.056;2022-08-30T00:35:15;24.23;66.75
65824;SHT31;52585;47.566;19.056;2022-08-30T00:37:42;24.21;66.80
65824;SHT31;52585;47.566;19.056;2022-08-30T00:40:09;24.19;66.84
65824;SHT31;52585;47.566;19.056;2022-08-30T00:42:36;24.19;66.93
65824;SHT31;52585;47.566;19.056;2022-08-30T00:45:11;24.21;66.93
65824;SHT31;52585;47.566;19.056;2022-08-30T00:47:39;24.24;66.85
65824;SHT31;52585;47.566;19.056;2022-08-30T00:50:05;24.26;66.70
65824;SHT31;52585;47.566;19.056;2022-08-30T00:52:33;24.28;66.57
65824;SHT31;52585;47.566;19.056;2022-08-30T00:55:00;24.28;66.60
65824;SHT31;52585;47.566;19.056;2022-08-30T00:57:28;24.29;66.60
65824;SHT31;52585;47.566;19.056;2022-08-30T00:59:55;24.27;66.60
65824;SHT31;52585;47.566;19.056;2022-08-30T01:02:20;24.27;66.56
65824;SHT31;52585;47.566;19.056;2022-08-30T01:04:47;24.26;66.54
65824;SHT31;52585;47.566;19.056;2022-08-30T01:07:15;24.26;66.42
65824;SHT31;52585;47.566;19.056;2022-08-30T01:09:42;24.26;66.34
65824;SHT31;52585;47.566;19.056;2022-08-30T01:12:08;24.25;66.38
65824;SHT31;52585;47.566;19.056;2022-08-30T01:14:34;24.24;66.45
65824;SHT31;52585;47.566;19.056;2022-08-30T01:17:00;24.23;66.30
65824;SHT31;52585;47.566;19.056;2022-08-30T01:24:51;24.15;66.54
65824;SHT31;52585;47.566;19.056;2022-08-30T01:27:20;24.11;66.63
65824;SHT31;52585;47.566;19.056;2022-08-30T01:29:47;24.08;66.74
65824;SHT31;52585;47.566;19.056;2022-08-30T01:32:17;24.05;66.74
65824;SHT31;52585;47.566;19.056;2022-08-30T01:34:45;24.03;66.82
65824;SHT31;52585;47.566;19.056;2022-08-30T01:37:15;24.01;66.81
65824;SHT31;52585;47.566;19.056;2022-08-30T01:39:44;24.00;66.89
65824;SHT31;52585;47.566;19.056;2022-08-30T01:42:11;23.99;67.00
65824;SHT31;52585;47.566;19.056;2022-08-30T01:44:37;23.96;67.14
65824;SHT31;52585;47.566;19.056;2022-08-30T01:47:03;23.94;67.29
65824;SHT31;52585;47.566;19.056;2022-08-30T01:49:30;23.91;67.41
65824;SHT31;52585;47.566;19.056;2022-08-30T01:51:55;23.90;67.50
65824;SHT31;52585;47.566;19.056;2022-08-30T01:54:22;23.88;67.61
65824;SHT31;52585;47.566;19.056;2022-08-30T01:56:47;23.88;67.53
65824;SHT31;52585;47.566;19.056;2022-08-30T01:59:13;23.88;67.46
65824;SHT31;52585;47.566;19.056;2022-08-30T02:01:38;23.90;67.41
65824;SHT31;52585;47.566;19.056;2022-08-30T02:04:06;23.91;67.41
65824;SHT31;52585;47.566;19.056;2022-08-30T02:06:33;23.91;67.34
65824;SHT31;52585;47.566;19.056;2022-08-30T02:08:58;23.92;67.22
65824;SHT31;52585;47.566;19.056;2022-08-30T02:11:24;23.92;67.19
65824;SHT31;52585;47.566;19.056;2022-08-30T02:13:50;23.90;67.11
65824;SHT31;52585;47.566;19.056;2022-08-30T02:16:16;23.86;67.16
65824;SHT31;52585;47.566;19.056;2022-08-30T02:18:46;23.83;67.20
65824;SHT31;52585;47.566;19.056;2022-08-30T02:21:13;23.79;67.17
65824;SHT31;52585;47.566;19.056;2022-08-30T02:23:39;23.76;67.25
65824;SHT31;52585;47.566;19.056;2022-08-30T02:26:05;23.74;67.22
65824;SHT31;52585;47.566;19.056;2022-08-30T02:28:30;23.74;67.20
65824;SHT31;52585;47.566;19.056;2022-08-30T02:30:56;23.72;67.19
65824;SHT31;52585;47.566;19.056;2022-08-30T02:33:21;23.71;67.07
65824;SHT31;52585;47.566;19.056;2022-08-30T02:35:50;23.67;67.01
65824;SHT31;52585;47.566;19.056;2022-08-30T02:38:18;23.65;67.08
65824;SHT31;52585;47.566;19.056;2022-08-30T02:40:44;23.64;67.20
65824;SHT31;52585;47.566;19.056;2022-08-30T02:43:09;23.62;67.24
65824;SHT31;52585;47.566;19.056;2022-08-30T02:45:35;23.60;67.22
65824;SHT31;52585;47.566;19.056;2022-08-30T02:48:01;23.58;67.22
65824;SHT31;52585;47.566;19.056;2022-08-30T02:50:27;23.57;67.10
65824;SHT31;52585;47.566;19.056;2022-08-30T02:52:53;23.55;67.18
65824;SHT31;52585;47.566;19.056;2022-08-30T02:55:19;23.52;67.26
65824;SHT31;52585;47.566;19.056;2022-08-30T02:57:45;23.50;67.36
65824;SHT31;52585;47.566;19.056;2022-08-30T03:00:13;23.49;67.23
65824;SHT31;52585;47.566;19.056;2022-08-30T03:02:40;23.49;67.37
65824;SHT31;52585;47.566;19.056;2022-08-30T03:05:06;23.50;67.28
65824;SHT31;52585;47.566;19.056;2022-08-30T03:07:33;23.49;67.21
65824;SHT31;52585;47.566;19.056;2022-08-30T03:09:59;23.47;67.37
65824;SHT31;52585;47.566;19.056;2022-08-30T03:12:25;23.46;67.30
65824;SHT31;52585;47.566;19.056;2022-08-30T03:14:50;23.46;67.29
65824;SHT31;52585;47.566;19.056;2022-08-30T03:17:16;23.44;67.19
65824;SHT31;52585;47.566;19.056;2022-08-30T03:19:42;23.41;67.28
65824;SHT31;52585;47.566;19.056;2022-08-30T03:22:08;23.41;67.28
65824;SHT31;52585;47.566;19.056;2022-08-30T03:24:34;23.41;67.23
65824;SHT31;52585;47.566;19.056;2022-08-30T03:27:01;23.39;67.24
65824;SHT31;52585;47.566;19.056;2022-08-30T03:29:26;23.37;67.23
65824;SHT31;52585;47.566;19.056;2022-08-30T03:31:54;23.35;67.29
65824;SHT31;52585;47.566;19.056;2022-08-30T03:34:22;23.33;67.17
65824;SHT31;52585;47.566;19.056;2022-08-30T03:36:50;23.31;67.19
65824;SHT31;52585;47.566;19.056;2022-08-30T03:39:17;23.28;67.23
65824;SHT31;52585;47.566;19.056;2022-08-30T03:41:43;23.25;67.21
65824;SHT31;52585;47.566;19.056;2022-08-30T03:44:10;23.23;67.23
65824;SHT31;52585;47.566;19.056;2022-08-30T03:46:35;23.22;67.35
65824;SHT31;52585;47.566;19.056;2022-08-30T03:49:02;23.20;67.34
65824;SHT31;52585;47.566;19.056;2022-08-30T03:51:29;23.20;67.28
65824;SHT31;52585;47.566;19.056;2022-08-30T03:53:54;23.19;67.22
65824;SHT31;52585;47.566;19.056;2022-08-30T03:56:19;23.17;67.21
65824;SHT31;52585;47.566;19.056;2022-08-30T03:58:45;23.16;67.11
65824;SHT31;52585;47.566;19.056;2022-08-30T04:01:11;23.12;67.19
65824;SHT31;52585;47.566;19.056;2022-08-30T04:03:36;23.08;67.37
65824;SHT31;52585;47.566;19.056;2022-08-30T04:06:02;23.05;67.54
65824;SHT31;52585;47.566;19.056;2022-08-30T04:08:28;23.03;67.52
65824;SHT31;52585;47.566;19.056;2022-08-30T04:10:53;23.03;67.44
65824;SHT31;52585;47.566;19.056;2022-08-30T04:13:20;23.02;67.62
65824;SHT31;52585;47.566;19.056;2022-08-30T04:15:47;23.01;67.68
65824;SHT31;52585;47.566;19.056;2022-08-30T04:18:13;23.01;67.60
65824;SHT31;52585;47.566;19.056;2022-08-30T04:20:39;23.01;67.61
65824;SHT31;52585;47.566;19.056;2022-08-30T04:23:05;23.01;67.58
65824;SHT31;52585;47.566;19.056;2022-08-30T04:25:34;23.03;67.51
65824;SHT31;52585;47.566;19.056;2022-08-30T04:28:01;23.02;67.52
65824;SHT31;52585;47.566;19.056;2022-08-30T04:30:28;23.00;67.41
65824;SHT31;52585;47.566;19.056;2022-08-30T04:32:54;22.99;67.38
65824;SHT31;52585;47.566;19.056;2022-08-30T04:35:20;22.98;67.43
65824;SHT31;52585;47.566;19.056;2022-08-30T04:37:45;22.96;67.33
65824;SHT31;52585;47.566;19.056;2022-08-30T04:40:11;22.96;67.33
65824;SHT31;52585;47.566;19.056;2022-08-30T04:42:38;22.93;67.36
65824;SHT31;52585;47.566;19.056;2022-08-30T04:45:09;22.92;67.44
65824;SHT31;52585;47.566;19.056;2022-08-30T04:47:37;22.87;67.58
65824;SHT31;52585;47.566;19.056;2022-08-30T04:50:04;22.84;67.63
65824;SHT31;52585;47.566;19.056;2022-08-30T04:52:31;22.82;67.73
65824;SHT31;52585;47.566;19.056;2022-08-30T04:54:57;22.80;67.88
65824;SHT31;52585;47.566;19.056;2022-08-30T04:57:24;22.76;68.00
65824;SHT31;52585;47.566;19.056;2022-08-30T04:59:51;22.75;68.03
65824;SHT31;52585;47.566;19.056;2022-08-30T05:02:16;22.74;68.10
65824;SHT31;52585;47.566;19.056;2022-08-30T05:04:42;22.74;68.16
65824;SHT31;52585;47.566;19.056;2022-08-30T05:07:27;22.73;68.32
65824;SHT31;52585;47.566;19.056;2022-08-30T05:09:53;22.73;68.41
65824;SHT31;52585;47.566;19.056;2022-08-30T05:12:19;22.73;68.42
65824;SHT31;52585;47.566;19.056;2022-08-30T05:14:44;22.75;68.49
65824;SHT31;52585;47.566;19.056;2022-08-30T05:17:10;22.77;68.49
65824;SHT31;52585;47.566;19.056;2022-08-30T05:19:35;22.78;68.44
65824;SHT31;52585;47.566;19.056;2022-08-30T05:22:00;22.82;68.43
65824;SHT31;52585;47.566;19.056;2022-08-30T05:24:26;22.84;68.47
65824;SHT31;52585;47.566;19.056;2022-08-30T05:26:51;22.87;68.41
65824;SHT31;52585;47.566;19.056;2022-08-30T05:29:17;22.90;68.40
65824;SHT31;52585;47.566;19.056;2022-08-30T05:31:43;22.93;68.40
65824;SHT31;52585;47.566;19.056;2022-08-30T05:34:09;22.95;68.41
65824;SHT31;52585;47.566;19.056;2022-08-30T05:36:35;22.97;68.38
65824;SHT31;52585;47.566;19.056;2022-08-30T05:39:02;23.00;68.44
65824;SHT31;52585;47.566;19.056;2022-08-30T05:41:29;23.02;68.48
65824;SHT31;52585;47.566;19.056;2022-08-30T05:43:56;23.04;68.48
65824;SHT31;52585;47.566;19.056;2022-08-30T05:46:24;23.07;68.52
65824;SHT31;52585;47.566;19.056;2022-08-30T05:48:53;23.08;68.59
65824;SHT31;52585;47.566;19.056;2022-08-30T05:51:22;23.09;68.68
65824;SHT31;52585;47.566;19.056;2022-08-30T05:53:49;23.11;68.77
65824;SHT31;52585;47.566;19.056;2022-08-30T05:56:18;23.12;68.77
65824;SHT31;52585;47.566;19.056;2022-08-30T05:58:49;23.16;68.73
65824;SHT31;52585;47.566;19.056;2022-08-30T06:01:28;23.17;68.94
65824;SHT31;52585;47.566;19.056;2022-08-30T06:03:58;23.18;69.12
65824;SHT31;52585;47.566;19.056;2022-08-30T06:06:25;23.21;69.32
65824;SHT31;52585;47.566;19.056;2022-08-30T06:08:53;23.22;69.51
65824;SHT31;52585;47.566;19.056;2022-08-30T06:11:20;23.23;70.01
65824;SHT31;52585;47.566;19.056;2022-08-30T06:13:47;23.25;70.22
65824;SHT31;52585;47.566;19.056;2022-08-30T06:16:14;23.27;70.27
65824;SHT31;52585;47.566;19.056;2022-08-30T06:18:40;23.30;70.28
65824;SHT31;52585;47.566;19.056;2022-08-30T06:21:06;23.34;70.19
65824;SHT31;52585;47.566;19.056;2022-08-30T06:23:32;23.37;70.13
65824;SHT31;52585;47.566;19.056;2022-08-30T06:26:03;23.40;70.02
65824;SHT31;52585;47.566;19.056;2022-08-30T06:28:30;23.43;69.90
65824;SHT31;52585;47.566;19.056;2022-08-30T06:30:56;23.46;69.77
65824;SHT31;52585;47.566;19.056;2022-08-30T06:33:22;23.49;69.67
65824;SHT31;52585;47.566;19.056;2022-08-30T06:35:48;23.51;69.60
65824;SHT31;52585;47.566;19.056;2022-08-30T06:38:13;23.54;69.48
65824;SHT31;52585;47.566;19.056;2022-08-30T06:40:39;23.55;69.34
65824;SHT31;52585;47.566;19.056;2022-08-30T06:43:04;23.58;69.30
65824;SHT31;52585;47.566;19.056;2022-08-30T06:45:29;23.61;69.23
65824;SHT31;52585;47.566;19.056;2022-08-30T06:47:55;23.63;69.06
65824;SHT31;52585;47.566;19.056;2022-08-30T06:50:22;23.66;68.76
65824;SHT31;52585;47.566;19.056;2022-08-30T06:52:49;23.68;68.72
65824;SHT31;52585;47.566;19.056;2022-08-30T06:55:15;23.69;68.46
65824;SHT31;52585;47.566;19.056;2022-08-30T06:57:41;23.72;68.40
65824;SHT31;52585;47.566;19.056;2022-08-30T07:00:07;23.74;68.31
65824;SHT31;52585;47.566;19.056;2022-08-30T07:02:35;23.76;68.14
65824;SHT31;52585;47.566;19.056;2022-08-30T07:05:02;23.80;68.04
65824;SHT31;52585;47.566;19.056;2022-08-30T07:07:28;23.84;67.95
65824;SHT31;52585;47.566;19.056;2022-08-30T07:09:53;23.85;67.42
65824;SHT31;52585;47.566;19.056;2022-08-30T07:12:19;23.87;66.98
65824;SHT31;52585;47.566;19.056;2022-08-30T07:14:45;23.90;66.86
65824;SHT31;52585;47.566;19.056;2022-08-30T07:17:10;23.93;66.84
65824;SHT31;52585;47.566;19.056;2022-08-30T07:19:54;23.96;66.78
65824;SHT31;52585;47.566;19.056;2022-08-30T07:22:20;23.99;66.68
65824;SHT31;52585;47.566;19.056;2022-08-30T07:24:45;24.03;66.55
65824;SHT31;52585;47.566;19.056;2022-08-30T07:27:12;24.06;66.58
65824;SHT31;52585;47.566;19.056;2022-08-30T07:29:38;24.10;66.59
65824;SHT31;52585;47.566;19.056;2022-08-30T07:32:04;24.13;66.55
65824;SHT31;52585;47.566;19.056;2022-08-30T07:34:30;24.17;66.31
65824;SHT31;52585;47.566;19.056;2022-08-30T07:36:55;24.19;65.78
65824;SHT31;52585;47.566;19.056;2022-08-30T07:39:21;24.23;65.25
65824;SHT31;52585;47.566;19.056;2022-08-30T07:41:46;24.25;63.37
65824;SHT31;52585;47.566;19.056;2022-08-30T07:44:12;24.27;62.86
65824;SHT31;52585;47.566;19.056;2022-08-30T07:46:39;24.30;62.69
65824;SHT31;52585;47.566;19.056;2022-08-30T07:49:05;24.33;62.26
65824;SHT31;52585;47.566;19.056;2022-08-30T07:51:32;24.36;62.66
65824;SHT31;52585;47.566;19.056;2022-08-30T07:53:57;24.40;62.76
65824;SHT31;52585;47.566;19.056;2022-08-30T07:56:23;24.42;62.81
65824;SHT31;52585;47.566;19.056;2022-08-30T07:58:49;24.46;62.78
65824;SHT31;52585;47.566;19.056;2022-08-30T08:01:16;24.50;62.90
65824;SHT31;52585;47.566;19.056;2022-08-30T08:03:42;24.53;62.93
65824;SHT31;52585;47.566;19.056;2022-08-30T08:06:09;24.57;62.90
65824;SHT31;52585;47.566;19.056;2022-08-30T08:08:37;24.60;63.06
65824;SHT31;52585;47.566;19.056;2022-08-30T08:11:13;24.62;63.08
65824;SHT31;52585;47.566;19.056;2022-08-30T08:13:40;24.66;63.02
65824;SHT31;52585;47.566;19.056;2022-08-30T08:16:07;24.69;62.94
65824;SHT31;52585;47.566;19.056;2022-08-30T08:18:33;24.74;62.53
65824;SHT31;52585;47.566;19.056;2022-08-30T08:20:59;24.77;62.47
65824;SHT31;52585;47.566;19.056;2022-08-30T08:23:25;24.79;62.50
65824;SHT31;52585;47.566;19.056;2022-08-30T08:25:51;24.82;62.36
65824;SHT31;52585;47.566;19.056;2022-08-30T08:28:17;24.85;62.16
65824;SHT31;52585;47.566;19.056;2022-08-30T08:30:43;24.88;62.07
65824;SHT31;52585;47.566;19.056;2022-08-30T08:33:09;24.90;61.78
65824;SHT31;52585;47.566;19.056;2022-08-30T08:35:37;24.92;61.56
65824;SHT31;52585;47.566;19.056;2022-08-30T08:38:03;24.94;61.31
65824;SHT31;52585;47.566;19.056;2022-08-30T08:40:29;24.98;61.07
65824;SHT31;52585;47.566;19.056;2022-08-30T08:43:11;25.01;60.84
65824;SHT31;52585;47.566;19.056;2022-08-30T08:50:56;25.10;60.56
65824;SHT31;52585;47.566;19.056;2022-08-30T08:53:40;25.13;60.31
65824;SHT31;52585;47.566;19.056;2022-08-30T08:56:12;25.16;60.05
65824;SHT31;52585;47.566;19.056;2022-08-30T09:01:18;25.22;59.59
65824;SHT31;52585;47.566;19.056;2022-08-30T09:03:46;25.25;59.45
65824;SHT31;52585;47.566;19.056;2022-08-30T09:06:23;25.28;59.29
65824;SHT31;52585;47.566;19.056;2022-08-30T09:09:06;25.32;59.19
65824;SHT31;52585;47.566;19.056;2022-08-30T09:11:32;25.35;58.97
65824;SHT31;52585;47.566;19.056;2022-08-30T09:14:01;25.37;58.83
65824;SHT31;52585;47.566;19.056;2022-08-30T09:19:34;25.40;59.02
65824;SHT31;52585;47.566;19.056;2022-08-30T09:22:03;25.42;58.84
65824;SHT31;52585;47.566;19.056;2022-08-30T09:24:42;25.42;58.66
65824;SHT31;52585;47.566;19.056;2022-08-30T09:27:30;25.43;58.65
65824;SHT31;52585;47.566;19.056;2022-08-30T09:32:36;25.46;58.80
65824;SHT31;52585;47.566;19.056;2022-08-30T09:35:19;25.47;58.72
65824;SHT31;52585;47.566;19.056;2022-08-30T09:40:21;25.51;58.67
65824;SHT31;52585;47.566;19.056;2022-08-30T09:43:01;25.52;58.43
65824;SHT31;52585;47.566;19.056;2022-08-30T09:45:28;25.55;58.51
65824;SHT31;52585;47.566;19.056;2022-08-30T09:47:56;25.58;58.29
65824;SHT31;52585;47.566;19.056;2022-08-30T09:50:21;25.60;58.27
65824;SHT31;52585;47.566;19.056;2022-08-30T09:52:56;25.64;57.94
65824;SHT31;52585;47.566;19.056;2022-08-30T09:58:54;25.72;57.40
65824;SHT31;52585;47.566;19.056;2022-08-30T10:01:39;25.76;57.18
65824;SHT31;52585;47.566;19.056;2022-08-30T10:09:44;25.86;56.89
65824;SHT31;52585;47.566;19.056;2022-08-30T10:12:28;25.88;56.70
65824;SHT31;52585;47.566;19.056;2022-08-30T10:15:19;25.89;56.80
65824;SHT31;52585;47.566;19.056;2022-08-30T10:23:32;25.91;56.62
65824;SHT31;52585;47.566;19.056;2022-08-30T10:26:13;25.92;56.61
65824;SHT31;52585;47.566;19.056;2022-08-30T10:31:42;25.94;56.10
65824;SHT31;52585;47.566;19.056;2022-08-30T10:34:16;25.94;56.37
65824;SHT31;52585;47.566;19.056;2022-08-30T10:36:47;25.95;56.08
65824;SHT31;52585;47.566;19.056;2022-08-30T10:39:22;25.97;55.95
65824;SHT31;52585;47.566;19.056;2022-08-30T10:41:53;26.00;55.88
65824;SHT31;52585;47.566;19.056;2022-08-30T10:44:42;26.04;56.02
65824;SHT31;52585;47.566;19.056;2022-08-30T10:47:16;26.06;55.94
65824;SHT31;52585;47.566;19.056;2022-08-30T10:49:44;26.10;55.76
65824;SHT31;52585;47.566;19.056;2022-08-30T10:57:43;26.20;54.62
65824;SHT31;52585;47.566;19.056;2022-08-30T11:02:54;26.24;55.02
65824;SHT31;52585;47.566;19.056;2022-08-30T11:08:09;26.29;54.80
65824;SHT31;52585;47.566;19.056;2022-08-30T11:13:38;26.35;54.54
65824;SHT31;52585;47.566;19.056;2022-08-30T11:16:13;26.38;54.60
65824;SHT31;52585;47.566;19.056;2022-08-30T11:18:50;26.41;54.58
65824;SHT31;52585;47.566;19.056;2022-08-30T11:21:30;26.43;54.31
65824;SHT31;52585;47.566;19.056;2022-08-30T11:24:06;26.44;54.34
65824;SHT31;52585;47.566;19.056;2022-08-30T11:32:17;26.51;53.89
65824;SHT31;52585;47.566;19.056;2022-08-30T11:37:30;26.55;53.72
65824;SHT31;52585;47.566;19.056;2022-08-30T11:40:03;26.56;53.95
65824;SHT31;52585;47.566;19.056;2022-08-30T11:42:34;26.56;53.64
65824;SHT31;52585;47.566;19.056;2022-08-30T11:47:56;26.58;53.25
65824;SHT31;52585;47.566;19.056;2022-08-30T11:58:24;26.67;53.31
65824;SHT31;52585;47.566;19.056;2022-08-30T12:01:17;26.68;53.17
65824;SHT31;52585;47.566;19.056;2022-08-30T12:17:02;26.69;52.60
65824;SHT31;52585;47.566;19.056;2022-08-30T12:20:10;26.68;52.91
65824;SHT31;52585;47.566;19.056;2022-08-30T12:22:41;26.67;52.87
65824;SHT31;52585;47.566;19.056;2022-08-30T12:25:19;26.67;52.94
65824;SHT31;52585;47.566;19.056;2022-08-30T12:28:07;26.67;52.84
65824;SHT31;52585;47.566;19.056;2022-08-30T12:30:39;26.66;52.91
65824;SHT31;52585;47.566;19.056;2022-08-30T12:33:05;26.66;52.92
65824;SHT31;52585;47.566;19.056;2022-08-30T12:35:36;26.67;53.01
65824;SHT31;52585;47.566;19.056;2022-08-30T12:38:06;26.66;53.00
65824;SHT31;52585;47.566;19.056;2022-08-30T12:40:41;26.67;52.82
65824;SHT31;52585;47.566;19.056;2022-08-30T12:46:12;26.66;52.96
65824;SHT31;52585;47.566;19.056;2022-08-30T12:48:41;26.66;53.03
65824;SHT31;52585;47.566;19.056;2022-08-30T12:51:08;26.66;53.28
65824;SHT31;52585;47.566;19.056;2022-08-30T12:53:58;26.66;53.45
65824;SHT31;52585;47.566;19.056;2022-08-30T12:56:50;26.67;53.64
65824;SHT31;52585;47.566;19.056;2022-08-30T12:59:37;26.68;53.58
65824;SHT31;52585;47.566;19.056;2022-08-30T13:04:50;26.73;53.61
65824;SHT31;52585;47.566;19.056;2022-08-30T13:07:25;26.74;53.56
65824;SHT31;52585;47.566;19.056;2022-08-30T13:10:03;26.73;53.51
65824;SHT31;52585;47.566;19.056;2022-08-30T13:12:29;26.73;53.62
65824;SHT31;52585;47.566;19.056;2022-08-30T13:15:08;26.74;53.82
65824;SHT31;52585;47.566;19.056;2022-08-30T13:17:40;26.73;53.71
65824;SHT31;52585;47.566;19.056;2022-08-30T13:20:27;26.74;53.82
65824;SHT31;52585;47.566;19.056;2022-08-30T13:23:05;26.74;53.92
65824;SHT31;52585;47.566;19.056;2022-08-30T13:25:33;26.74;53.94
65824;SHT31;52585;47.566;19.056;2022-08-30T13:28:00;26.73;53.95
65824;SHT31;52585;47.566;19.056;2022-08-30T13:30:27;26.74;54.06
65824;SHT31;52585;47.566;19.056;2022-08-30T13:32:53;26.74;54.15
65824;SHT31;52585;47.566;19.056;2022-08-30T13:35:19;26.74;54.32
65824;SHT31;52585;47.566;19.056;2022-08-30T13:37:44;26.75;54.39
65824;SHT31;52585;47.566;19.056;2022-08-30T13:40:11;26.75;54.49
65824;SHT31;52585;47.566;19.056;2022-08-30T13:42:38;26.76;54.48
65824;SHT31;52585;47.566;19.056;2022-08-30T13:45:07;26.77;54.37
65824;SHT31;52585;47.566;19.056;2022-08-30T13:47:34;26.76;54.50
65824;SHT31;52585;47.566;19.056;2022-08-30T13:50:00;26.77;54.55
65824;SHT31;52585;47.566;19.056;2022-08-30T13:52:25;26.78;54.25
65824;SHT31;52585;47.566;19.056;2022-08-30T13:54:51;26.79;54.23
65824;SHT31;52585;47.566;19.056;2022-08-30T13:57:20;26.81;54.26
65824;SHT31;52585;47.566;19.056;2022-08-30T13:59:50;26.81;54.13
65824;SHT31;52585;47.566;19.056;2022-08-30T14:02:15;26.82;54.20
65824;SHT31;52585;47.566;19.056;2022-08-30T14:04:41;26.82;54.28
65824;SHT31;52585;47.566;19.056;2022-08-30T14:07:06;26.84;54.26
65824;SHT31;52585;47.566;19.056;2022-08-30T14:09:32;26.84;54.25
65824;SHT31;52585;47.566;19.056;2022-08-30T14:11:58;26.85;54.17
65824;SHT31;52585;47.566;19.056;2022-08-30T14:14:24;26.86;54.23
65824;SHT31;52585;47.566;19.056;2022-08-30T14:16:49;26.88;54.21
65824;SHT31;52585;47.566;19.056;2022-08-30T14:19:15;26.89;54.30
65824;SHT31;52585;47.566;19.056;2022-08-30T14:21:42;26.91;54.27
65824;SHT31;52585;47.566;19.056;2022-08-30T14:24:09;26.90;54.10
65824;SHT31;52585;47.566;19.056;2022-08-30T14:26:38;26.91;54.02
65824;SHT31;52585;47.566;19.056;2022-08-30T14:29:09;26.91;54.09
65824;SHT31;52585;47.566;19.056;2022-08-30T14:31:37;26.92;54.22
65824;SHT31;52585;47.566;19.056;2022-08-30T14:34:04;26.92;54.18
65824;SHT31;52585;47.566;19.056;2022-08-30T14:36:31;26.92;53.97
65824;SHT31;52585;47.566;19.056;2022-08-30T14:38:57;26.93;54.04
65824;SHT31;52585;47.566;19.056;2022-08-30T14:41:23;26.92;54.13
65824;SHT31;52585;47.566;19.056;2022-08-30T14:43:49;26.93;54.12
65824;SHT31;52585;47.566;19.056;2022-08-30T14:46:15;26.95;54.10
65824;SHT31;52585;47.566;19.056;2022-08-30T14:48:40;26.93;54.11
65824;SHT31;52585;47.566;19.056;2022-08-30T14:51:13;26.93;54.18
65824;SHT31;52585;47.566;19.056;2022-08-30T14:53:40;26.93;54.31
65824;SHT31;52585;47.566;19.056;2022-08-30T14:56:09;26.93;54.38
65824;SHT31;52585;47.566;19.056;2022-08-30T14:58:40;26.93;54.45
65824;SHT31;52585;47.566;19.056;2022-08-30T15:01:06;26.92;54.55
65824;SHT31;52585;47.566;19.056;2022-08-30T15:03:33;26.92;54.70
65824;SHT31;52585;47.566;19.056;2022-08-30T15:06:00;26.91;54.81
65824;SHT31;52585;47.566;19.056;2022-08-30T15:08:25;26.92;54.85
65824;SHT31;52585;47.566;19.056;2022-08-30T15:10:50;26.91;54.95
65824;SHT31;52585;47.566;19.056;2022-08-30T15:13:16;26.90;55.08
65824;SHT31;52585;47.566;19.056;2022-08-30T15:15:41;26.89;55.11
65824;SHT31;52585;47.566;19.056;2022-08-30T15:18:07;26.89;55.21
65824;SHT31;52585;47.566;19.056;2022-08-30T15:20:33;26.90;55.27
65824;SHT31;52585;47.566;19.056;2022-08-30T15:22:58;26.90;55.22
65824;SHT31;52585;47.566;19.056;2022-08-30T15:25:24;26.92;55.13
65824;SHT31;52585;47.566;19.056;2022-08-30T15:27:49;26.93;54.81
65824;SHT31;52585;47.566;19.056;2022-08-30T15:30:15;26.94;54.53
65824;SHT31;52585;47.566;19.056;2022-08-30T15:32:40;26.95;54.69
65824;SHT31;52585;47.566;19.056;2022-08-30T15:35:06;26.94;54.72
65824;SHT31;52585;47.566;19.056;2022-08-30T15:37:32;26.95;54.70
65824;SHT31;52585;47.566;19.056;2022-08-30T15:39:57;26.93;54.59
65824;SHT31;52585;47.566;19.056;2022-08-30T15:42:22;26.93;54.29
65824;SHT31;52585;47.566;19.056;2022-08-30T15:44:51;26.92;54.28
65824;SHT31;52585;47.566;19.056;2022-08-30T15:47:18;26.92;54.21
65824;SHT31;52585;47.566;19.056;2022-08-30T15:49:52;26.93;54.44
65824;SHT31;52585;47.566;19.056;2022-08-30T15:52:20;26.93;54.48
65824;SHT31;52585;47.566;19.056;2022-08-30T15:54:45;26.94;54.49
65824;SHT31;52585;47.566;19.056;2022-08-30T15:57:10;26.95;54.48
65824;SHT31;52585;47.566;19.056;2022-08-30T15:59:36;26.95;54.48
65824;SHT31;52585;47.566;19.056;2022-08-30T16:02:01;26.96;54.46
65824;SHT31;52585;47.566;19.056;2022-08-30T16:04:27;26.98;54.52
65824;SHT31;52585;47.566;19.056;2022-08-30T16:06:52;26.97;54.50
65824;SHT31;52585;47.566;19.056;2022-08-30T16:09:18;26.98;54.59
65824;SHT31;52585;47.566;19.056;2022-08-30T16:11:44;26.97;54.78
65824;SHT31;52585;47.566;19.056;2022-08-30T16:14:09;26.98;54.93
65824;SHT31;52585;47.566;19.056;2022-08-30T16:16:35;26.99;55.04
65824;SHT31;52585;47.566;19.056;2022-08-30T16:19:03;26.98;54.98
65824;SHT31;52585;47.566;19.056;2022-08-30T16:21:30;27.00;54.79
65824;SHT31;52585;47.566;19.056;2022-08-30T16:23:59;26.99;54.15
65824;SHT31;52585;47.566;19.056;2022-08-30T16:26:25;27.00;53.77
65824;SHT31;52585;47.566;19.056;2022-08-30T16:28:52;27.00;53.53
65824;SHT31;52585;47.566;19.056;2022-08-30T16:31:18;27.02;53.62
65824;SHT31;52585;47.566;19.056;2022-08-30T16:33:45;27.01;53.00
65824;SHT31;52585;47.566;19.056;2022-08-30T16:36:11;27.02;53.27
65824;SHT31;52585;47.566;19.056;2022-08-30T16:38:38;27.03;53.39
65824;SHT31;52585;47.566;19.056;2022-08-30T16:41:08;27.01;53.42
65824;SHT31;52585;47.566;19.056;2022-08-30T16:43:36;27.01;53.57
65824;SHT31;52585;47.566;19.056;2022-08-30T16:46:04;27.02;53.61
65824;SHT31;52585;47.566;19.056;2022-08-30T16:48:32;27.00;53.62
65824;SHT31;52585;47.566;19.056;2022-08-30T16:50:58;27.01;53.61
65824;SHT31;52585;47.566;19.056;2022-08-30T16:53:24;27.01;53.51